Time;durP1;ratioP1;P1;durP2;ratioP2;P2;SDS_P1;SDS_P2;PMS_P1;PMS_P2;Temp;Humidity;BMP_temperature;BMP_pressure;BME280_temperature;BME280_humidity;BME280_pressure;Samples;Min_cycle;Max_cycle;Signal;HPM_P1;HPM_P2
2023/08/19 00:00:57;;;;;;;3.47;3.17;;;18.60;99.90;;;;;;5035184;28;20029;-32
2023/08/19 00:03:23;;;;;;;4.28;3.28;;;18.60;99.90;;;;;;5039057;28;20060;-32
2023/08/19 00:05:49;;;;;;;3.67;3.03;;;18.50;99.90;;;;;;5043876;28;20068;-33
2023/08/19 00:08:15;;;;;;;4.60;3.55;;;18.40;99.90;;;;;;5037235;28;20080;-33
2023/08/19 00:10:41;;;;;;;4.55;3.58;;;18.20;99.90;;;;;;5022234;28;20095;-33
2023/08/19 00:13:07;;;;;;;4.10;3.15;;;18.10;99.90;;;;;;5038390;28;20036;-35
2023/08/19 00:15:34;;;;;;;4.10;3.08;;;18.10;99.90;;;;;;5039101;28;20282;-33
2023/08/19 00:18:00;;;;;;;4.80;3.55;;;18.20;99.90;;;;;;5036623;28;20534;-31
2023/08/19 00:20:28;;;;;;;4.13;3.72;;;18.20;99.90;;;;;;5036176;28;20326;-32
2023/08/19 00:22:56;;;;;;;3.77;3.20;;;18.20;99.90;;;;;;5035682;28;21297;-32
2023/08/19 00:25:22;;;;;;;4.28;3.85;;;18.20;99.90;;;;;;5035603;28;20496;-40
2023/08/19 00:27:47;;;;;;;5.65;4.00;;;18.10;99.90;;;;;;5035650;28;20041;-42
2023/08/19 00:30:13;;;;;;;5.55;3.40;;;17.90;99.90;;;;;;5033568;28;20029;-34
2023/08/19 00:32:40;;;;;;;4.25;3.80;;;17.80;99.90;;;;;;5034912;28;20498;-41
2023/08/19 00:35:05;;;;;;;6.47;3.70;;;18.00;99.90;;;;;;5033293;28;20029;-35
2023/08/19 00:37:32;;;;;;;3.83;3.42;;;17.90;99.90;;;;;;5033039;28;20029;-39
2023/08/19 00:39:58;;;;;;;4.75;3.38;;;17.90;99.90;;;;;;5030536;28;20021;-34
2023/08/19 00:42:24;;;;;;;5.60;3.40;;;17.90;99.90;;;;;;5033345;28;20379;-38
2023/08/19 00:44:49;;;;;;;3.40;2.65;;;17.90;99.90;;;;;;5033565;28;20032;-41
2023/08/19 00:47:15;;;;;;;3.10;2.40;;;17.70;99.90;;;;;;5035819;28;20021;-34
2023/08/19 00:49:42;;;;;;;2.38;2.17;;;17.70;99.90;;;;;;5033278;28;20021;-41
2023/08/19 00:52:08;;;;;;;2.90;2.70;;;17.70;99.90;;;;;;5032569;28;20032;-35
2023/08/19 00:54:33;;;;;;;3.45;2.10;;;17.80;99.90;;;;;;5014880;28;20105;-41
2023/08/19 00:57:00;;;;;;;3.05;2.50;;;17.70;99.90;;;;;;5032943;28;20419;-40
2023/08/19 00:59:26;;;;;;;3.10;2.55;;;17.60;99.90;;;;;;5033905;28;20150;-41
2023/08/19 01:01:52;;;;;;;2.80;2.60;;;17.50;99.90;;;;;;5037733;28;20382;-39
2023/08/19 01:04:18;;;;;;;4.18;2.75;;;17.50;99.90;;;;;;5032419;28;20039;-39
2023/08/19 01:07:24;;;;;;;4.25;3.20;;;17.50;99.90;;;;;;5030814;28;20029;-38
2023/08/19 01:09:58;;;;;;;4.82;3.30;;;17.50;99.90;;;;;;5023685;28;20080;-36
2023/08/19 01:12:23;;;;;;;2.60;2.40;;;17.40;99.90;;;;;;5023119;28;20047;-37
2023/08/19 01:15:10;;;;;;;1.80;1.70;;;17.50;99.90;;;;;;5022140;28;20041;-41
2023/08/19 01:17:37;;;;;;;2.30;2.10;;;17.40;99.90;;;;;;5032284;28;20631;-41
2023/08/19 01:20:05;;;;;;;1.67;1.58;;;17.50;99.90;;;;;;5033926;28;20068;-42
2023/08/19 01:22:36;;;;;;;2.10;2.00;;;17.50;99.90;;;;;;5032831;28;20030;-40
2023/08/19 01:25:03;;;;;;;2.20;2.10;;;17.50;99.90;;;;;;5033170;28;20038;-40
2023/08/19 01:27:28;;;;;;;2.50;2.30;;;17.50;99.90;;;;;;5038700;28;20040;-42
2023/08/19 01:29:55;;;;;;;3.13;2.65;;;17.50;99.90;;;;;;5036287;28;20656;-39
2023/08/19 01:32:22;;;;;;;3.28;2.70;;;17.50;99.90;;;;;;5032485;28;20116;-40
2023/08/19 01:34:49;;;;;;;3.95;3.10;;;17.40;99.90;;;;;;5033782;28;20368;-40
2023/08/19 01:37:21;;;;;;;6.13;3.35;;;17.40;99.90;;;;;;5032851;28;20378;-38
2023/08/19 01:39:48;;;;;;;3.78;2.80;;;17.40;99.90;;;;;;5035438;28;20029;-40
2023/08/19 01:42:16;;;;;;;6.00;3.30;;;17.40;99.90;;;;;;5034331;28;20108;-37
2023/08/19 01:44:43;;;;;;;5.43;3.40;;;17.40;99.90;;;;;;5037907;28;20033;-40
2023/08/19 01:47:16;;;;;;;4.47;3.55;;;17.30;99.90;;;;;;5038000;28;20093;-41
2023/08/19 01:49:45;;;;;;;4.00;3.55;;;17.30;99.90;;;;;;5038193;28;20499;-39
2023/08/19 01:52:14;;;;;;;3.65;3.30;;;17.20;99.90;;;;;;5038029;28;20398;-40
2023/08/19 01:54:40;;;;;;;4.22;3.58;;;17.30;99.90;;;;;;5036772;28;21869;-41
2023/08/19 01:57:06;;;;;;;4.53;3.58;;;17.30;99.90;;;;;;5036522;28;20029;-35
2023/08/19 01:59:33;;;;;;;4.82;3.70;;;17.30;99.90;;;;;;5035786;28;20052;-41
2023/08/19 02:01:58;;;;;;;4.00;3.20;;;17.40;99.90;;;;;;5036818;28;20057;-41
2023/08/19 02:04:24;;;;;;;5.10;3.60;;;17.30;99.90;;;;;;5022063;28;20091;-40
2023/08/19 02:06:50;;;;;;;5.00;3.50;;;17.20;99.90;;;;;;5039051;28;20033;-41
2023/08/19 02:09:16;;;;;;;5.00;3.30;;;17.10;99.90;;;;;;5034734;28;20505;-36
2023/08/19 02:11:41;;;;;;;3.53;3.22;;;17.20;99.90;;;;;;5038687;28;20044;-41
2023/08/19 02:14:08;;;;;;;4.60;3.58;;;17.20;99.90;;;;;;5036714;28;20033;-36
2023/08/19 02:16:34;;;;;;;4.80;3.55;;;17.20;99.90;;;;;;5034066;28;20109;-30
2023/08/19 02:19:00;;;;;;;4.07;3.50;;;17.20;99.90;;;;;;5037643;28;20108;-30
2023/08/19 02:21:26;;;;;;;4.60;3.45;;;17.20;99.90;;;;;;5039767;28;20031;-31
2023/08/19 02:23:53;;;;;;;3.80;3.40;;;17.20;99.90;;;;;;5037712;28;20065;-31
2023/08/19 02:26:19;;;;;;;5.20;3.92;;;17.20;99.90;;;;;;5034842;28;20116;-33
2023/08/19 02:28:45;;;;;;;6.22;4.00;;;17.20;99.90;;;;;;5029075;28;20114;-31
2023/08/19 02:31:10;;;;;;;5.03;3.22;;;17.10;99.90;;;;;;5029826;28;20513;-35
2023/08/19 02:33:36;;;;;;;4.78;3.50;;;17.10;99.90;;;;;;5027077;28;20033;-34
2023/08/19 02:36:04;;;;;;;2.67;2.45;;;17.00;99.90;;;;;;5033198;28;20107;-35
2023/08/19 02:38:30;;;;;;;2.55;2.25;;;16.90;99.90;;;;;;5032304;28;20103;-37
2023/08/19 02:40:56;;;;;;;2.90;2.60;;;16.90;99.90;;;;;;5033148;28;20885;-38
2023/08/19 02:43:22;;;;;;;3.10;2.10;;;16.90;99.90;;;;;;5033794;28;20060;-33
2023/08/19 02:45:48;;;;;;;2.53;2.10;;;16.80;99.90;;;;;;5038723;28;20068;-31
2023/08/19 02:48:14;;;;;;;3.00;2.35;;;16.80;99.90;;;;;;5039570;28;20028;-35
2023/08/19 02:50:43;;;;;;;2.67;2.10;;;16.70;99.90;;;;;;5040450;28;20029;-30
2023/08/19 02:53:09;;;;;;;4.03;2.13;;;16.70;99.90;;;;;;5038509;28;20514;-37
2023/08/19 02:55:41;;;;;;;1.67;1.58;;;16.60;99.90;;;;;;5041477;28;20056;-34
2023/08/19 02:58:08;;;;;;;1.63;1.30;;;16.60;99.90;;;;;;5033107;28;20029;-36
2023/08/19 03:00:36;;;;;;;1.23;1.20;;;16.50;99.90;;;;;;5028463;28;20033;-37
2023/08/19 03:03:03;;;;;;;1.60;1.50;;;16.40;99.90;;;;;;5031844;28;20502;-31
2023/08/19 03:05:28;;;;;;;2.92;1.40;;;16.50;99.90;;;;;;5039171;28;20047;-30
2023/08/19 03:07:54;;;;;;;1.42;1.33;;;16.50;99.90;;;;;;5040825;28;20041;-31
2023/08/19 03:10:19;;;;;;;1.88;1.38;;;16.50;99.90;;;;;;5042230;28;20569;-34
2023/08/19 03:12:45;;;;;;;1.60;1.50;;;16.40;99.90;;;;;;5037068;28;20053;-34
2023/08/19 03:15:11;;;;;;;1.98;1.88;;;16.40;99.90;;;;;;5024068;28;20087;-33
2023/08/19 03:17:36;;;;;;;4.05;3.08;;;16.40;99.90;;;;;;5037899;28;20159;-33
2023/08/19 03:20:02;;;;;;;3.55;3.20;;;16.30;99.90;;;;;;5039239;28;20032;-30
2023/08/19 03:22:28;;;;;;;4.10;3.13;;;16.40;99.90;;;;;;5049279;28;20071;-31
2023/08/19 03:24:53;;;;;;;4.53;3.65;;;16.50;99.90;;;;;;5041170;28;20032;-41
2023/08/19 03:27:19;;;;;;;4.47;3.78;;;16.40;99.90;;;;;;5040444;28;22261;-41
2023/08/19 03:29:44;;;;;;;3.92;2.97;;;16.40;99.90;;;;;;5028428;28;21993;-37
2023/08/19 03:32:10;;;;;;;2.40;2.20;;;16.40;99.90;;;;;;5038225;28;20805;-36
2023/08/19 03:34:36;;;;;;;2.30;2.10;;;16.10;99.90;;;;;;5036058;28;20036;-38
2023/08/19 03:37:01;;;;;;;2.88;2.40;;;16.10;99.90;;;;;;5024102;28;20048;-37
2023/08/19 03:39:27;;;;;;;3.33;3.03;;;16.10;99.90;;;;;;5036554;28;20040;-41
2023/08/19 03:41:52;;;;;;;2.50;2.28;;;16.10;99.90;;;;;;5036018;28;20024;-40
2023/08/19 03:44:18;;;;;;;2.35;2.15;;;16.20;99.90;;;;;;5037046;28;20118;-41
2023/08/19 03:46:43;;;;;;;1.98;1.50;;;16.10;99.90;;;;;;5037656;28;20033;-40
2023/08/19 03:49:09;;;;;;;1.88;1.70;;;16.20;99.90;;;;;;5040445;28;20028;-40
2023/08/19 03:51:34;;;;;;;1.50;1.40;;;16.10;99.90;;;;;;5041588;28;20028;-39
2023/08/19 03:54:00;;;;;;;2.03;1.60;;;15.90;99.90;;;;;;5034288;28;20832;-41
2023/08/19 03:56:25;;;;;;;2.08;1.80;;;16.00;99.90;;;;;;5034606;28;20478;-40
2023/08/19 03:58:51;;;;;;;1.90;1.80;;;16.00;99.90;;;;;;5041273;28;20488;-40
2023/08/19 04:01:17;;;;;;;2.50;2.30;;;16.10;99.90;;;;;;5037432;28;20029;-41
2023/08/19 04:03:42;;;;;;;3.97;2.72;;;16.10;99.90;;;;;;5040179;28;20083;-35
2023/08/19 04:06:08;;;;;;;3.10;2.72;;;16.20;99.90;;;;;;5042786;28;20032;-40
2023/08/19 04:08:33;;;;;;;4.88;3.20;;;16.20;99.90;;;;;;5035422;28;20037;-41
2023/08/19 04:11:08;;;;;;;4.45;3.20;;;16.20;99.90;;;;;;5036013;28;20384;-39
2023/08/19 04:13:34;;;;;;;3.55;2.95;;;16.30;99.90;;;;;;5038046;28;20034;-39
2023/08/19 04:16:05;;;;;;;3.40;3.10;;;16.30;99.90;;;;;;5034044;28;20033;-37
2023/08/19 04:18:31;;;;;;;3.05;2.85;;;16.30;99.90;;;;;;5031905;28;20057;-40
2023/08/19 04:21:01;;;;;;;3.47;3.00;;;16.30;99.90;;;;;;5034548;28;20501;-40
2023/08/19 04:23:26;;;;;;;4.05;3.10;;;16.30;99.90;;;;;;5036099;28;20042;-41
2023/08/19 04:25:55;;;;;;;4.90;3.17;;;16.30;99.90;;;;;;5033917;28;20040;-40
2023/08/19 04:28:21;;;;;;;4.10;2.92;;;16.30;99.90;;;;;;5033834;28;20421;-41
2023/08/19 04:30:46;;;;;;;3.20;2.90;;;16.20;99.90;;;;;;5034445;28;20024;-41
2023/08/19 04:33:12;;;;;;;2.42;2.20;;;16.20;99.90;;;;;;5039214;28;20025;-40
2023/08/19 04:35:38;;;;;;;2.80;2.60;;;16.10;99.90;;;;;;5040652;28;20025;-32
2023/08/19 04:38:03;;;;;;;2.65;2.45;;;16.10;99.90;;;;;;5038468;28;20039;-33
2023/08/19 04:40:30;;;;;;;2.55;2.35;;;16.10;99.90;;;;;;5032143;28;20024;-32
2023/08/19 04:42:57;;;;;;;2.20;2.10;;;15.90;99.90;;;;;;5037455;28;20082;-34
2023/08/19 04:45:23;;;;;;;1.90;1.80;;;15.80;99.90;;;;;;5043115;28;20108;-32
2023/08/19 04:47:49;;;;;;;1.85;1.70;;;15.90;99.90;;;;;;5036603;28;20037;-36
2023/08/19 04:50:15;;;;;;;1.80;1.70;;;15.90;99.90;;;;;;5036419;28;20387;-35
2023/08/19 04:52:40;;;;;;;2.08;1.58;;;15.80;99.90;;;;;;5040642;28;20029;-32
2023/08/19 04:55:06;;;;;;;2.60;2.40;;;15.80;99.90;;;;;;5037459;28;20033;-33
2023/08/19 04:57:32;;;;;;;3.17;2.75;;;15.90;99.90;;;;;;5039470;28;20028;-33
2023/08/19 04:59:58;;;;;;;2.88;2.55;;;16.00;99.90;;;;;;5038356;28;20025;-33
2023/08/19 05:02:23;;;;;;;5.35;2.78;;;16.00;99.90;;;;;;5038030;28;20159;-33
2023/08/19 05:04:49;;;;;;;4.43;2.33;;;16.10;99.90;;;;;;5038488;28;20526;-32
2023/08/19 05:07:14;;;;;;;2.08;1.88;;;16.10;99.90;;;;;;5038896;28;20033;-37
2023/08/19 05:09:40;;;;;;;2.50;1.70;;;16.00;99.90;;;;;;5039752;28;20130;-32
2023/08/19 05:12:06;;;;;;;2.78;1.90;;;16.00;99.90;;;;;;5039603;28;20029;-39
2023/08/19 05:14:32;;;;;;;3.13;2.67;;;16.20;99.90;;;;;;5039548;28;20024;-36
2023/08/19 05:16:58;;;;;;;3.40;3.10;;;16.30;99.90;;;;;;5017810;28;20033;-37
2023/08/19 05:19:24;;;;;;;6.65;3.83;;;16.40;99.90;;;;;;5018259;28;20503;-33
2023/08/19 05:21:50;;;;;;;5.97;3.35;;;16.40;99.90;;;;;;5021894;28;20067;-33
2023/08/19 05:24:16;;;;;;;6.50;3.58;;;16.40;99.90;;;;;;5010953;28;20541;-36
2023/08/19 05:26:44;;;;;;;3.63;2.97;;;16.50;99.90;;;;;;5016417;28;20040;-34
2023/08/19 05:29:11;;;;;;;4.40;3.50;;;16.60;99.90;;;;;;5016675;28;20148;-32
2023/08/19 05:31:36;;;;;;;4.03;3.40;;;16.70;99.90;;;;;;5010932;28;20096;-33
2023/08/19 05:34:02;;;;;;;4.38;3.33;;;16.80;99.90;;;;;;5008744;28;20030;-35
2023/08/19 05:36:28;;;;;;;3.67;3.25;;;16.90;99.90;;;;;;5016989;28;20694;-33
2023/08/19 05:38:54;;;;;;;4.45;3.53;;;16.90;99.90;;;;;;5018858;28;22169;-36
2023/08/19 05:41:20;;;;;;;5.22;3.55;;;16.90;99.90;;;;;;5016919;28;20030;-37
2023/08/19 05:43:45;;;;;;;4.40;3.58;;;17.00;99.90;;;;;;5016618;28;20038;-32
2023/08/19 05:46:11;;;;;;;4.03;3.67;;;17.00;99.90;;;;;;5021182;28;20029;-32
2023/08/19 05:48:37;;;;;;;6.35;4.20;;;17.10;99.90;;;;;;5018727;28;20065;-35
2023/08/19 05:51:03;;;;;;;4.07;3.67;;;17.10;99.90;;;;;;5018526;28;20036;-37
2023/08/19 05:53:29;;;;;;;3.88;3.55;;;17.10;99.90;;;;;;5013249;28;20056;-34
2023/08/19 05:55:54;;;;;;;4.72;3.92;;;17.20;99.90;;;;;;5018714;28;20029;-33
2023/08/19 05:58:20;;;;;;;6.40;4.30;;;17.30;99.90;;;;;;5021524;28;20021;-37
2023/08/19 06:00:45;;;;;;;5.88;5.05;;;17.40;99.90;;;;;;5020574;28;20072;-32
2023/08/19 06:03:12;;;;;;;4.85;4.35;;;17.50;99.90;;;;;;5019627;28;20030;-34
2023/08/19 06:05:38;;;;;;;6.32;4.70;;;17.50;99.90;;;;;;5018604;28;20341;-31
2023/08/19 06:08:07;;;;;;;7.55;4.85;;;17.60;99.90;;;;;;5016872;28;20116;-32
2023/08/19 06:10:32;;;;;;;6.55;5.00;;;17.70;99.90;;;;;;5012755;28;20034;-36
2023/08/19 06:12:58;;;;;;;5.72;4.95;;;17.70;99.90;;;;;;5015589;28;20060;-34
2023/08/19 06:15:24;;;;;;;6.53;4.95;;;17.80;99.90;;;;;;5027318;28;20026;-33
2023/08/19 06:17:49;;;;;;;6.93;4.93;;;17.80;99.90;;;;;;5029398;28;20506;-31
2023/08/19 06:20:15;;;;;;;6.63;6.00;;;18.00;99.90;;;;;;5034401;28;20033;-34
2023/08/19 06:22:40;;;;;;;7.15;5.03;;;18.10;99.90;;;;;;5038239;28;20543;-32
2023/08/19 06:25:07;;;;;;;8.23;5.40;;;18.30;99.90;;;;;;5037212;28;20940;-36
2023/08/19 06:27:32;;;;;;;5.90;5.20;;;18.40;99.90;;;;;;5031034;28;20116;-35
2023/08/19 06:29:58;;;;;;;5.78;5.13;;;18.40;99.90;;;;;;5017252;28;20078;-36
2023/08/19 06:32:24;;;;;;;6.05;5.43;;;18.60;99.90;;;;;;5027875;28;20076;-32
2023/08/19 06:34:50;;;;;;;6.30;5.15;;;18.80;99.90;;;;;;5019748;28;20043;-35
2023/08/19 06:37:20;;;;;;;8.02;5.30;;;18.90;99.90;;;;;;5040612;28;20477;-32
2023/08/19 06:39:49;;;;;;;6.40;5.25;;;19.00;99.90;;;;;;5033905;28;20039;-32
2023/08/19 06:42:16;;;;;;;6.45;5.25;;;19.20;99.90;;;;;;5033196;28;20025;-34
2023/08/19 06:44:43;;;;;;;6.53;4.93;;;19.40;99.90;;;;;;5033147;28;20052;-33
2023/08/19 06:47:10;;;;;;;6.28;4.90;;;19.60;99.90;;;;;;5036924;28;20025;-33
2023/08/19 06:49:39;;;;;;;5.45;4.90;;;19.90;99.90;;;;;;5033103;28;20021;-35
2023/08/19 06:52:05;;;;;;;5.85;4.72;;;20.10;99.90;;;;;;5030794;28;20040;-33
2023/08/19 06:54:31;;;;;;;7.95;5.32;;;20.20;99.90;;;;;;5033178;28;20809;-37
2023/08/19 06:57:06;;;;;;;9.82;4.88;;;20.30;99.90;;;;;;5034638;28;20049;-37
2023/08/19 06:59:36;;;;;;;4.90;4.20;;;20.50;99.90;;;;;;5034227;28;20083;-38
2023/08/19 07:02:04;;;;;;;7.13;4.30;;;20.60;99.90;;;;;;5034755;28;20040;-36
2023/08/19 07:04:30;;;;;;;7.03;4.50;;;20.80;99.90;;;;;;5035318;28;20039;-40
2023/08/19 07:07:04;;;;;;;6.05;4.07;;;20.90;99.90;;;;;;5039028;28;20041;-36
2023/08/19 07:09:30;;;;;;;4.75;4.10;;;21.00;99.90;;;;;;5037286;28;20029;-40
2023/08/19 07:11:57;;;;;;;4.38;3.97;;;21.20;99.90;;;;;;5042042;28;20818;-37
2023/08/19 07:14:24;;;;;;;6.25;3.83;;;21.30;99.90;;;;;;5047038;28;20029;-40
2023/08/19 07:16:51;;;;;;;4.30;3.90;;;21.60;99.90;;;;;;5049038;28;20016;-40
2023/08/19 07:19:25;;;;;;;6.22;3.80;;;21.90;99.90;;;;;;5042019;28;20074;-37
2023/08/19 07:21:54;;;;;;;4.63;4.05;;;22.10;99.90;;;;;;5045860;28;20033;-39
2023/08/19 07:24:20;;;;;;;7.03;3.75;;;22.20;99.90;;;;;;5040987;28;20108;-40
2023/08/19 07:26:48;;;;;;;7.47;4.20;;;22.40;99.90;;;;;;5036546;28;20029;-37
2023/08/19 07:29:14;;;;;;;6.43;4.03;;;22.40;99.90;;;;;;5036538;28;20025;-34
2023/08/19 07:31:40;;;;;;;7.20;3.95;;;22.60;99.90;;;;;;5033687;28;20280;-36
2023/08/19 07:34:06;;;;;;;6.28;4.63;;;22.70;99.90;;;;;;5042309;28;20471;-34
2023/08/19 07:36:32;;;;;;;7.90;4.53;;;22.70;99.90;;;;;;5039490;28;20052;-39
2023/08/19 07:38:57;;;;;;;6.95;4.15;;;22.70;99.90;;;;;;5037853;28;20020;-40
2023/08/19 07:41:23;;;;;;;5.70;4.20;;;22.80;99.90;;;;;;5036693;28;20025;-40
2023/08/19 07:43:49;;;;;;;5.05;4.20;;;22.90;99.90;;;;;;5036492;28;20048;-38
2023/08/19 07:46:15;;;;;;;4.25;3.85;;;23.10;99.90;;;;;;5039397;28;20039;-36
2023/08/19 07:48:42;;;;;;;7.28;4.07;;;23.20;99.90;;;;;;5038042;28;20044;-38
2023/08/19 07:51:08;;;;;;;7.93;3.50;;;23.60;99.90;;;;;;5035436;28;20498;-40
2023/08/19 07:53:34;;;;;;;6.13;3.80;;;23.80;99.90;;;;;;5039337;28;20082;-40
2023/08/19 07:55:59;;;;;;;5.95;4.57;;;23.80;99.90;;;;;;5035295;28;20020;-41
2023/08/19 07:58:25;;;;;;;5.68;3.97;;;23.80;99.90;;;;;;5037312;28;20781;-40
2023/08/19 08:00:51;;;;;;;5.47;3.78;;;23.90;99.90;;;;;;5038593;28;20037;-41
2023/08/19 08:03:16;;;;;;;6.70;3.88;;;23.90;99.90;;;;;;5044396;28;20026;-39
2023/08/19 08:05:42;;;;;;;5.95;3.80;;;24.10;99.90;;;;;;5039699;28;20056;-32
2023/08/19 08:08:07;;;;;;;5.43;3.33;;;24.30;99.90;;;;;;5041880;28;20514;-33
2023/08/19 08:10:33;;;;;;;5.85;3.45;;;24.50;99.90;;;;;;5037368;28;20036;-32
2023/08/19 08:12:59;;;;;;;5.30;3.80;;;24.70;99.90;;;;;;5038062;28;20144;-32
2023/08/19 08:15:25;;;;;;;5.95;3.63;;;24.90;99.90;;;;;;5037824;28;20642;-34
2023/08/19 08:17:50;;;;;;;3.55;3.22;;;25.20;99.90;;;;;;5039816;28;20060;-32
2023/08/19 08:20:16;;;;;;;4.43;3.50;;;25.50;99.90;;;;;;5038310;28;20032;-33
2023/08/19 08:22:41;;;;;;;4.72;3.67;;;25.70;99.90;;;;;;5042303;28;20057;-33
2023/08/19 08:25:09;;;;;;;6.22;3.55;;;25.90;99.90;;;;;;5037647;28;20029;-35
2023/08/19 08:27:35;;;;;;;5.00;3.42;;;25.80;99.90;;;;;;5047860;28;20029;-30
2023/08/19 08:30:00;;;;;;;4.40;3.17;;;25.70;99.90;;;;;;5039965;28;20079;-31
2023/08/19 08:32:26;;;;;;;5.00;3.55;;;25.70;99.90;;;;;;5040191;28;20060;-33
2023/08/19 08:34:52;;;;;;;4.93;3.33;;;25.90;99.90;;;;;;5047036;28;20140;-30
2023/08/19 08:37:18;;;;;;;5.95;3.00;;;26.10;99.90;;;;;;5046667;28;20028;-35
2023/08/19 08:39:44;;;;;;;3.75;3.30;;;26.20;99.90;;;;;;5045319;28;20086;-31
2023/08/19 08:42:10;;;;;;;4.82;3.40;;;26.50;99.90;;;;;;5047964;28;20028;-32
2023/08/19 08:44:37;;;;;;;5.35;3.08;;;26.70;99.90;;;;;;5044621;28;20041;-32
2023/08/19 08:47:03;;;;;;;4.93;3.70;;;26.50;99.90;;;;;;5041305;28;20040;-30
2023/08/19 08:49:29;;;;;;;4.57;3.60;;;26.60;99.90;;;;;;5038638;28;20065;-33
2023/08/19 08:51:59;;;;;;;5.50;3.67;;;26.50;99.90;;;;;;5037416;28;20616;-31
2023/08/19 08:54:26;;;;;;;8.75;3.70;;;26.50;99.90;;;;;;5044269;28;20370;-31
2023/08/19 08:56:52;;;;;;;6.50;3.60;;;26.60;99.90;;;;;;5042045;28;20021;-31
2023/08/19 08:59:18;;;;;;;5.35;3.67;;;26.70;99.90;;;;;;5040047;28;20033;-34
2023/08/19 09:01:46;;;;;;;5.88;3.13;;;26.70;99.90;;;;;;5038990;28;20490;-30
2023/08/19 09:04:16;;;;;;;5.60;3.25;;;26.80;99.90;;;;;;5027116;28;20839;-31
2023/08/19 09:06:43;;;;;;;6.20;3.20;;;27.20;99.90;;;;;;5042779;28;20137;-31
2023/08/19 09:09:12;;;;;;;6.78;3.47;;;27.30;99.90;;;;;;5040444;28;20125;-31
2023/08/19 09:11:40;;;;;;;5.28;3.33;;;27.70;99.90;;;;;;5044289;28;20102;-31
2023/08/19 09:14:17;;;;;;;6.05;3.35;;;27.60;99.90;;;;;;5040328;28;20127;-39
2023/08/19 09:16:43;;;;;;;8.13;3.22;;;27.30;99.90;;;;;;5041593;28;20101;-32
2023/08/19 09:19:09;;;;;;;4.38;3.22;;;27.20;99.90;;;;;;5039728;28;20037;-30
2023/08/19 09:21:34;;;;;;;16.45;4.20;;;27.70;99.90;;;;;;5042653;28;20094;-31
2023/08/19 09:24:00;;;;;;;8.75;3.33;;;28.00;99.90;;;;;;5044100;28;20062;-30
2023/08/19 09:26:26;;;;;;;6.03;3.30;;;28.00;99.90;;;;;;5033810;28;20774;-32
2023/08/19 09:28:58;;;;;;;5.40;3.40;;;28.30;99.90;;;;;;5038822;28;20164;-30
2023/08/19 09:31:24;;;;;;;7.28;3.33;;;28.60;99.90;;;;;;5036418;28;20068;-30
2023/08/19 09:33:54;;;;;;;4.10;3.22;;;28.60;99.90;;;;;;5039500;28;20025;-31
2023/08/19 09:36:24;;;;;;;6.60;2.88;;;28.50;99.90;;;;;;5033902;28;20032;-30
2023/08/19 09:38:54;;;;;;;5.20;2.70;;;28.60;99.90;;;;;;5039364;28;20029;-31
2023/08/19 09:41:20;;;;;;;4.95;3.30;;;28.60;99.90;;;;;;5031555;28;20021;-30
2023/08/19 09:43:48;;;;;;;7.95;3.42;;;28.70;99.90;;;;;;5042091;28;20094;-31
2023/08/19 09:46:14;;;;;;;6.95;3.30;;;28.40;99.90;;;;;;5046528;28;20032;-33
2023/08/19 09:48:40;;;;;;;4.47;2.92;;;28.70;99.90;;;;;;5044565;28;20515;-31
2023/08/19 09:51:08;;;;;;;4.00;3.05;;;28.90;99.90;;;;;;5047211;28;20044;-36
2023/08/19 09:53:37;;;;;;;4.78;2.58;;;29.20;99.90;;;;;;5050986;28;20628;-32
2023/08/19 09:56:02;;;;;;;4.25;2.75;;;29.00;99.90;;;;;;5044212;28;20074;-33
2023/08/19 09:58:28;;;;;;;10.30;3.13;;;29.20;99.90;;;;;;5047924;28;20033;-34
2023/08/19 10:00:54;;;;;;;5.82;3.13;;;29.50;99.90;;;;;;5050513;28;20025;-30
2023/08/19 10:03:20;;;;;;;5.00;3.00;;;29.20;99.90;;;;;;5043259;28;20086;-31
2023/08/19 10:05:52;;;;;;;4.85;2.90;;;28.80;99.90;;;;;;5034887;28;20122;-31
2023/08/19 10:08:25;;;;;;;4.47;2.70;;;28.60;99.90;;;;;;5043701;28;20029;-31
2023/08/19 10:10:51;;;;;;;4.20;2.90;;;28.80;99.90;;;;;;5049492;28;20559;-30
2023/08/19 10:13:19;;;;;;;6.00;3.00;;;29.20;99.90;;;;;;5035864;28;20033;-30
2023/08/19 10:15:45;;;;;;;6.57;3.33;;;29.60;99.90;;;;;;5044941;28;20093;-31
2023/08/19 10:18:17;;;;;;;6.13;3.00;;;29.70;99.90;;;;;;5044439;28;20090;-33
2023/08/19 10:20:47;;;;;;;4.88;3.13;;;29.40;99.90;;;;;;5045771;28;20100;-30
2023/08/19 10:23:14;;;;;;;5.40;2.80;;;29.60;99.90;;;;;;5039497;28;20040;-38
2023/08/19 10:25:42;;;;;;;4.50;3.05;;;29.70;99.90;;;;;;5046308;28;20028;-30
2023/08/19 10:28:12;;;;;;;3.58;2.97;;;30.20;99.90;;;;;;5046686;28;20029;-35
2023/08/19 10:30:37;;;;;;;5.07;2.70;;;30.30;99.90;;;;;;5044472;28;20466;-32
2023/08/19 10:33:05;;;;;;;5.53;3.03;;;30.00;99.90;;;;;;5044326;28;20051;-31
2023/08/19 10:36:00;;;;;;;4.20;2.83;;;29.70;99.90;;;;;;5046217;28;20502;-31
2023/08/19 10:38:38;;;;;;;5.43;3.00;;;29.50;99.90;;;;;;5047419;28;20713;-32
2023/08/19 10:41:18;;;;;;;5.32;2.90;;;29.40;99.90;;;;;;5047416;28;20021;-31
2023/08/19 10:44:00;;;;;;;5.13;3.60;;;29.60;99.90;;;;;;5044559;28;20037;-32
2023/08/19 10:46:34;;;;;;;5.05;3.00;;;29.50;99.90;;;;;;5042216;28;20033;-32
2023/08/19 10:49:02;;;;;;;4.97;3.30;;;29.60;99.90;;;;;;5043026;28;20044;-31
2023/08/19 10:51:53;;;;;;;7.63;2.88;;;29.60;99.90;;;;;;5045154;28;20608;-36
2023/08/19 10:54:30;;;;;;;4.50;2.97;;;29.50;99.90;;;;;;5041814;28;20032;-31
2023/08/19 10:57:16;;;;;;;3.33;2.80;;;29.50;99.90;;;;;;5045150;28;20029;-34
2023/08/19 10:59:46;;;;;;;6.13;2.90;;;29.80;99.90;;;;;;5034154;28;20226;-29
2023/08/19 11:02:13;;;;;;;5.25;3.00;;;30.00;99.90;;;;;;5016519;28;20124;-29
2023/08/19 11:04:41;;;;;;;4.18;2.67;;;30.10;99.90;;;;;;5028650;28;20037;-32
2023/08/19 11:07:07;;;;;;;4.57;2.60;;;30.30;99.90;;;;;;5037319;28;20037;-32
2023/08/19 11:09:34;;;;;;;6.47;2.97;;;30.60;99.90;;;;;;5045332;28;20048;-29
2023/08/19 11:12:00;;;;;;;5.70;2.90;;;30.80;99.90;;;;;;5044966;28;20060;-33
2023/08/19 11:14:26;;;;;;;4.93;2.92;;;31.20;99.90;;;;;;5043382;28;20033;-30
2023/08/19 11:16:54;;;;;;;4.45;3.05;;;31.50;99.90;;;;;;5043026;28;20049;-30
2023/08/19 11:19:21;;;;;;;2.95;2.50;;;31.20;99.90;;;;;;5039970;28;20030;-33
2023/08/19 11:21:46;;;;;;;3.70;2.17;;;31.10;99.90;;;;;;5045327;28;20421;-33
2023/08/19 11:24:13;;;;;;;5.72;2.60;;;30.80;99.90;;;;;;5039957;28;20041;-30
2023/08/19 11:26:43;;;;;;;4.10;2.47;;;30.50;99.90;;;;;;5044754;28;20091;-31
2023/08/19 11:29:09;;;;;;;7.35;2.70;;;30.30;99.90;;;;;;5041773;28;20041;-30
2023/08/19 11:31:40;;;;;;;3.97;2.30;;;30.30;99.90;;;;;;5039941;28;20033;-31
2023/08/19 11:34:12;;;;;;;4.82;2.35;;;30.40;99.90;;;;;;5045080;28;20020;-38
2023/08/19 11:36:39;;;;;;;5.00;2.55;;;30.50;99.90;;;;;;5042840;28;20545;-39
2023/08/19 11:39:05;;;;;;;;;;;30.40;99.90;;;;;;5045191;28;20032;-35
2023/08/19 11:41:33;;;;;;;4.25;2.30;;;30.50;99.90;;;;;;5042458;28;19952;-40
2023/08/19 11:43:59;;;;;;;3.65;2.60;;;30.50;99.90;;;;;;5039757;28;20064;-40
2023/08/19 11:46:31;;;;;;;6.32;2.38;;;30.50;99.90;;;;;;5040064;28;20495;-38
2023/08/19 11:48:58;;;;;;;3.97;2.40;;;30.50;99.90;;;;;;5043641;28;20115;-40
2023/08/19 11:51:28;;;;;;;4.00;2.50;;;30.70;99.90;;;;;;5040986;28;20398;-39
2023/08/19 11:54:00;;;;;;;5.25;2.80;;;31.00;99.90;;;;;;5043297;28;20135;-39
2023/08/19 11:56:25;;;;;;;4.68;2.65;;;31.00;99.90;;;;;;5036314;28;20033;-41
2023/08/19 11:58:52;;;;;;;5.82;2.75;;;31.10;99.90;;;;;;5044184;28;20029;-37
2023/08/19 12:01:20;;;;;;;6.13;2.65;;;31.30;99.90;;;;;;5042154;28;20029;-40
2023/08/19 12:03:46;;;;;;;;;;;31.30;99.90;;;;;;5044714;28;20429;-38
2023/08/19 12:06:13;;;;;;;5.47;2.70;;;31.70;99.90;;;;;;5041147;28;19913;-39
2023/08/19 12:08:48;;;;;;;5.07;2.70;;;32.10;99.90;;;;;;5035872;28;21013;-41
2023/08/19 12:11:22;;;;;;;4.88;2.53;;;31.70;99.90;;;;;;5032624;28;20040;-35
2023/08/19 12:13:49;;;;;;;3.47;2.83;;;31.20;99.90;;;;;;5030053;28;20143;-34
2023/08/19 12:16:15;;;;;;;6.72;2.85;;;31.20;99.90;;;;;;5030754;28;20032;-35
2023/08/19 12:18:41;;;;;;;4.97;2.75;;;31.20;99.90;;;;;;5032113;28;20826;-36
2023/08/19 12:21:06;;;;;;;5.13;2.70;;;31.10;99.90;;;;;;5029149;28;20036;-35
2023/08/19 12:23:32;;;;;;;5.70;2.88;;;31.10;99.90;;;;;;5021556;28;20040;-37
2023/08/19 12:25:59;;;;;;;4.78;2.63;;;31.40;99.90;;;;;;5032779;28;20037;-39
2023/08/19 12:28:25;;;;;;;4.70;2.75;;;31.50;99.90;;;;;;5037978;28;20111;-39
2023/08/19 12:30:55;;;;;;;6.15;2.90;;;31.50;99.90;;;;;;5040772;28;20467;-39
2023/08/19 12:33:21;;;;;;;5.20;2.55;;;31.60;99.90;;;;;;5035175;28;20040;-40
2023/08/19 12:35:48;;;;;;;5.00;2.50;;;32.00;99.90;;;;;;5025613;28;20029;-40
2023/08/19 12:38:15;;;;;;;3.13;2.40;;;32.50;99.90;;;;;;5038133;28;20036;-35
2023/08/19 12:40:45;;;;;;;4.78;2.65;;;32.20;99.90;;;;;;5037686;28;20030;-38
2023/08/19 12:43:12;;;;;;;5.35;2.53;;;31.90;99.90;;;;;;5039272;28;20375;-40
2023/08/19 12:45:38;;;;;;;5.30;2.60;;;32.10;99.90;;;;;;5035641;28;20043;-38
2023/08/19 12:48:05;;;;;;;7.03;2.77;;;32.50;99.90;;;;;;5037756;28;20032;-35